sensor_id;sensor_type;location;lat;lon;timestamp;temperature;humidity
22456;DHT22;11395;53.204;6.502;2023-07-29T00:00:58;24.80;86.50
22456;DHT22;11395;53.204;6.502;2023-07-29T00:03:26;24.90;86.50
22456;DHT22;11395;53.204;6.502;2023-07-29T00:05:52;24.90;86.10
22456;DHT22;11395;53.204;6.502;2023-07-29T00:08:18;24.80;86.00
22456;DHT22;11395;53.204;6.502;2023-07-29T00:10:44;24.90;86.30
22456;DHT22;11395;53.204;6.502;2023-07-29T00:13:10;24.80;86.00
22456;DHT22;11395;53.204;6.502;2023-07-29T00:15:37;24.90;86.40
22456;DHT22;11395;53.204;6.502;2023-07-29T00:18:03;24.90;86.50
22456;DHT22;11395;53.204;6.502;2023-07-29T00:20:29;24.80;86.30
22456;DHT22;11395;53.204;6.502;2023-07-29T00:22:55;24.80;86.10
22456;DHT22;11395;53.204;6.502;2023-07-29T00:25:22;24.80;86.20
22456;DHT22;11395;53.204;6.502;2023-07-29T00:27:49;24.80;86.50
22456;DHT22;11395;53.204;6.502;2023-07-29T00:30:15;24.80;86.30
22456;DHT22;11395;53.204;6.502;2023-07-29T00:32:42;24.80;86.70
22456;DHT22;11395;53.204;6.502;2023-07-29T00:35:08;24.80;86.30
22456;DHT22;11395;53.204;6.502;2023-07-29T00:37:34;24.80;86.40
22456;DHT22;11395;53.204;6.502;2023-07-29T00:40:00;24.80;86.20
22456;DHT22;11395;53.204;6.502;2023-07-29T00:42:27;24.80;86.20
22456;DHT22;11395;53.204;6.502;2023-07-29T00:44:53;24.80;86.30
22456;DHT22;11395;53.204;6.502;2023-07-29T00:47:20;24.80;86.30
22456;DHT22;11395;53.204;6.502;2023-07-29T00:49:50;24.80;87.10
22456;DHT22;11395;53.204;6.502;2023-07-29T00:52:17;24.80;87.00
22456;DHT22;11395;53.204;6.502;2023-07-29T00:54:43;24.70;86.60
22456;DHT22;11395;53.204;6.502;2023-07-29T00:57:10;24.70;86.40
22456;DHT22;11395;53.204;6.502;2023-07-29T00:59:37;24.70;86.80
22456;DHT22;11395;53.204;6.502;2023-07-29T01:02:04;24.70;86.50
22456;DHT22;11395;53.204;6.502;2023-07-29T01:04:31;24.70;87.00
22456;DHT22;11395;53.204;6.502;2023-07-29T01:07:20;24.70;86.60
22456;DHT22;11395;53.204;6.502;2023-07-29T01:10:02;24.70;87.00
22456;DHT22;11395;53.204;6.502;2023-07-29T01:16:14;24.70;87.30
22456;DHT22;11395;53.204;6.502;2023-07-29T01:18:28;24.70;88.10
22456;DHT22;11395;53.204;6.502;2023-07-29T01:20:59;24.70;88.50
22456;DHT22;11395;53.204;6.502;2023-07-29T01:23:29;24.70;88.20
22456;DHT22;11395;53.204;6.502;2023-07-29T01:25:57;24.70;87.80
22456;DHT22;11395;53.204;6.502;2023-07-29T01:28:24;24.70;86.60
22456;DHT22;11395;53.204;6.502;2023-07-29T01:30:56;24.70;87.10
22456;DHT22;11395;53.204;6.502;2023-07-29T01:33:26;24.70;87.90
22456;DHT22;11395;53.204;6.502;2023-07-29T01:36:01;24.60;87.80
22456;DHT22;11395;53.204;6.502;2023-07-29T01:38:32;24.60;88.10
22456;DHT22;11395;53.204;6.502;2023-07-29T01:41:05;24.60;87.70
22456;DHT22;11395;53.204;6.502;2023-07-29T01:43:33;24.60;88.20
22456;DHT22;11395;53.204;6.502;2023-07-29T01:46:00;24.60;87.50
22456;DHT22;11395;53.204;6.502;2023-07-29T01:48:27;24.60;87.60
22456;DHT22;11395;53.204;6.502;2023-07-29T01:50:56;24.60;86.80
22456;DHT22;11395;53.204;6.502;2023-07-29T01:53:22;24.60;86.80
22456;DHT22;11395;53.204;6.502;2023-07-29T01:55:49;24.60;86.90
22456;DHT22;11395;53.204;6.502;2023-07-29T01:58:16;24.60;86.70
22456;DHT22;11395;53.204;6.502;2023-07-29T02:00:46;24.60;86.90
22456;DHT22;11395;53.204;6.502;2023-07-29T02:03:12;24.60;86.80
22456;DHT22;11395;53.204;6.502;2023-07-29T02:05:39;24.60;86.90
22456;DHT22;11395;53.204;6.502;2023-07-29T02:08:05;24.60;87.00
22456;DHT22;11395;53.204;6.502;2023-07-29T02:10:31;24.60;86.90
22456;DHT22;11395;53.204;6.502;2023-07-29T02:12:58;24.60;87.70
22456;DHT22;11395;53.204;6.502;2023-07-29T02:15:24;24.50;86.40
22456;DHT22;11395;53.204;6.502;2023-07-29T02:17:51;24.50;87.30
22456;DHT22;11395;53.204;6.502;2023-07-29T02:20:18;24.50;87.40
22456;DHT22;11395;53.204;6.502;2023-07-29T02:22:44;24.50;87.00
22456;DHT22;11395;53.204;6.502;2023-07-29T02:25:10;24.50;87.10
22456;DHT22;11395;53.204;6.502;2023-07-29T02:27:36;24.50;87.60
22456;DHT22;11395;53.204;6.502;2023-07-29T02:30:03;24.40;86.90
22456;DHT22;11395;53.204;6.502;2023-07-29T02:32:29;24.40;86.90
22456;DHT22;11395;53.204;6.502;2023-07-29T02:34:55;24.40;87.00
22456;DHT22;11395;53.204;6.502;2023-07-29T02:37:22;24.40;87.20
22456;DHT22;11395;53.204;6.502;2023-07-29T02:39:48;24.60;87.40
22456;DHT22;11395;53.204;6.502;2023-07-29T02:42:14;24.40;86.90
22456;DHT22;11395;53.204;6.502;2023-07-29T02:44:40;24.40;87.20
22456;DHT22;11395;53.204;6.502;2023-07-29T02:47:07;24.40;87.20
22456;DHT22;11395;53.204;6.502;2023-07-29T02:49:33;24.40;87.10
22456;DHT22;11395;53.204;6.502;2023-07-29T02:51:59;24.40;87.20
22456;DHT22;11395;53.204;6.502;2023-07-29T02:54:25;24.40;87.20
22456;DHT22;11395;53.204;6.502;2023-07-29T02:56:52;24.40;87.60
22456;DHT22;11395;53.204;6.502;2023-07-29T02:59:18;24.40;87.10
22456;DHT22;11395;53.204;6.502;2023-07-29T03:01:45;24.40;87.10
22456;DHT22;11395;53.204;6.502;2023-07-29T03:04:12;24.30;87.30
22456;DHT22;11395;53.204;6.502;2023-07-29T03:06:39;24.30;87.10
22456;DHT22;11395;53.204;6.502;2023-07-29T03:09:05;24.30;87.00
22456;DHT22;11395;53.204;6.502;2023-07-29T03:11:31;24.30;87.20
22456;DHT22;11395;53.204;6.502;2023-07-29T03:13:57;24.30;87.10
22456;DHT22;11395;53.204;6.502;2023-07-29T03:16:24;24.30;87.30
22456;DHT22;11395;53.204;6.502;2023-07-29T03:18:54;24.30;87.50
22456;DHT22;11395;53.204;6.502;2023-07-29T03:21:20;24.30;87.40
22456;DHT22;11395;53.204;6.502;2023-07-29T03:23:46;24.30;87.70
22456;DHT22;11395;53.204;6.502;2023-07-29T03:26:12;24.30;87.60
22456;DHT22;11395;53.204;6.502;2023-07-29T03:28:41;24.20;87.30
22456;DHT22;11395;53.204;6.502;2023-07-29T03:31:07;24.20;88.30
22456;DHT22;11395;53.204;6.502;2023-07-29T03:33:33;24.20;88.00
22456;DHT22;11395;53.204;6.502;2023-07-29T03:36:00;24.20;87.70
22456;DHT22;11395;53.204;6.502;2023-07-29T03:38:26;24.20;87.30
22456;DHT22;11395;53.204;6.502;2023-07-29T03:40:53;24.20;87.20
22456;DHT22;11395;53.204;6.502;2023-07-29T03:43:20;24.20;87.70
22456;DHT22;11395;53.204;6.502;2023-07-29T03:45:46;24.10;87.70
22456;DHT22;11395;53.204;6.502;2023-07-29T03:48:12;24.20;87.50
22456;DHT22;11395;53.204;6.502;2023-07-29T03:50:39;24.20;87.70
22456;DHT22;11395;53.204;6.502;2023-07-29T03:53:05;24.10;87.50
22456;DHT22;11395;53.204;6.502;2023-07-29T03:55:32;24.10;87.50
22456;DHT22;11395;53.204;6.502;2023-07-29T03:57:59;24.10;87.80
22456;DHT22;11395;53.204;6.502;2023-07-29T04:00:27;24.20;88.00
22456;DHT22;11395;53.204;6.502;2023-07-29T04:02:53;24.10;88.00
22456;DHT22;11395;53.204;6.502;2023-07-29T04:05:20;24.10;88.10
22456;DHT22;11395;53.204;6.502;2023-07-29T04:07:46;24.10;87.40
22456;DHT22;11395;53.204;6.502;2023-07-29T04:10:13;24.10;88.00
22456;DHT22;11395;53.204;6.502;2023-07-29T04:12:39;24.10;87.90
22456;DHT22;11395;53.204;6.502;2023-07-29T04:15:05;24.10;87.70
22456;DHT22;11395;53.204;6.502;2023-07-29T04:17:32;24.10;87.50
22456;DHT22;11395;53.204;6.502;2023-07-29T04:19:58;24.10;87.50
22456;DHT22;11395;53.204;6.502;2023-07-29T04:22:29;24.10;87.70
22456;DHT22;11395;53.204;6.502;2023-07-29T04:24:55;24.20;87.60
22456;DHT22;11395;53.204;6.502;2023-07-29T04:27:21;24.10;87.60
22456;DHT22;11395;53.204;6.502;2023-07-29T04:29:48;24.20;87.50
22456;DHT22;11395;53.204;6.502;2023-07-29T04:32:14;24.10;87.40
22456;DHT22;11395;53.204;6.502;2023-07-29T04:34:42;24.20;87.80
22456;DHT22;11395;53.204;6.502;2023-07-29T04:37:11;24.10;87.00
22456;DHT22;11395;53.204;6.502;2023-07-29T04:39:37;24.20;86.10
22456;DHT22;11395;53.204;6.502;2023-07-29T04:42:03;24.20;87.60
22456;DHT22;11395;53.204;6.502;2023-07-29T04:44:30;24.20;87.60
22456;DHT22;11395;53.204;6.502;2023-07-29T04:46:56;24.20;87.60
22456;DHT22;11395;53.204;6.502;2023-07-29T04:49:22;24.20;86.90
22456;DHT22;11395;53.204;6.502;2023-07-29T04:51:48;24.20;87.30
22456;DHT22;11395;53.204;6.502;2023-07-29T04:54:14;24.20;87.50
22456;DHT22;11395;53.204;6.502;2023-07-29T04:56:40;24.20;87.10
22456;DHT22;11395;53.204;6.502;2023-07-29T04:59:08;24.20;87.40
22456;DHT22;11395;53.204;6.502;2023-07-29T05:01:34;24.20;87.20
22456;DHT22;11395;53.204;6.502;2023-07-29T05:04:00;24.20;87.20
22456;DHT22;11395;53.204;6.502;2023-07-29T05:06:27;24.30;87.00
22456;DHT22;11395;53.204;6.502;2023-07-29T05:08:53;24.20;87.10
22456;DHT22;11395;53.204;6.502;2023-07-29T05:11:19;24.20;87.00
22456;DHT22;11395;53.204;6.502;2023-07-29T05:13:45;24.20;87.20
22456;DHT22;11395;53.204;6.502;2023-07-29T05:16:12;24.20;87.10
22456;DHT22;11395;53.204;6.502;2023-07-29T05:18:38;24.20;87.10
22456;DHT22;11395;53.204;6.502;2023-07-29T05:21:04;24.20;87.40
22456;DHT22;11395;53.204;6.502;2023-07-29T05:23:31;24.20;87.30
22456;DHT22;11395;53.204;6.502;2023-07-29T05:25:57;24.20;87.20
22456;DHT22;11395;53.204;6.502;2023-07-29T05:28:23;24.20;87.10
22456;DHT22;11395;53.204;6.502;2023-07-29T05:30:49;24.30;87.20
22456;DHT22;11395;53.204;6.502;2023-07-29T05:33:15;24.30;87.10
22456;DHT22;11395;53.204;6.502;2023-07-29T05:35:42;24.20;87.10
22456;DHT22;11395;53.204;6.502;2023-07-29T05:38:08;24.20;87.20
22456;DHT22;11395;53.204;6.502;2023-07-29T05:40:35;24.20;87.40
22456;DHT22;11395;53.204;6.502;2023-07-29T05:43:01;24.30;87.10
22456;DHT22;11395;53.204;6.502;2023-07-29T05:45:29;24.30;87.50
22456;DHT22;11395;53.204;6.502;2023-07-29T05:47:57;24.40;87.40
22456;DHT22;11395;53.204;6.502;2023-07-29T05:50:23;24.20;87.20
22456;DHT22;11395;53.204;6.502;2023-07-29T05:52:49;24.30;87.20
22456;DHT22;11395;53.204;6.502;2023-07-29T05:55:16;24.30;87.20
22456;DHT22;11395;53.204;6.502;2023-07-29T05:57:42;24.30;87.30
22456;DHT22;11395;53.204;6.502;2023-07-29T06:00:09;24.30;87.50
22456;DHT22;11395;53.204;6.502;2023-07-29T06:02:41;24.30;87.10
22456;DHT22;11395;53.204;6.502;2023-07-29T06:05:10;24.30;87.30
22456;DHT22;11395;53.204;6.502;2023-07-29T06:07:36;24.30;87.50
22456;DHT22;11395;53.204;6.502;2023-07-29T06:10:02;24.40;87.60
22456;DHT22;11395;53.204;6.502;2023-07-29T06:12:29;24.30;87.50
22456;DHT22;11395;53.204;6.502;2023-07-29T06:14:55;24.40;88.00
22456;DHT22;11395;53.204;6.502;2023-07-29T06:17:21;24.40;87.10
22456;DHT22;11395;53.204;6.502;2023-07-29T06:19:47;24.40;87.20
22456;DHT22;11395;53.204;6.502;2023-07-29T06:22:13;24.40;86.70
22456;DHT22;11395;53.204;6.502;2023-07-29T06:24:40;24.40;87.10
22456;DHT22;11395;53.204;6.502;2023-07-29T06:27:06;24.50;86.60
22456;DHT22;11395;53.204;6.502;2023-07-29T06:29:32;24.60;86.40
22456;DHT22;11395;53.204;6.502;2023-07-29T06:31:58;24.70;86.40
22456;DHT22;11395;53.204;6.502;2023-07-29T06:34:25;24.70;86.10
22456;DHT22;11395;53.204;6.502;2023-07-29T06:36:51;24.80;85.60
22456;DHT22;11395;53.204;6.502;2023-07-29T06:39:17;24.80;85.20
22456;DHT22;11395;53.204;6.502;2023-07-29T06:41:43;24.90;85.40
22456;DHT22;11395;53.204;6.502;2023-07-29T06:44:10;24.90;85.10
22456;DHT22;11395;53.204;6.502;2023-07-29T06:46:36;24.90;84.90
22456;DHT22;11395;53.204;6.502;2023-07-29T06:49:02;25.00;84.70
22456;DHT22;11395;53.204;6.502;2023-07-29T06:51:28;25.00;84.70
22456;DHT22;11395;53.204;6.502;2023-07-29T06:53:58;25.00;84.90
22456;DHT22;11395;53.204;6.502;2023-07-29T06:56:24;25.10;84.60
22456;DHT22;11395;53.204;6.502;2023-07-29T06:58:50;25.10;84.50
22456;DHT22;11395;53.204;6.502;2023-07-29T07:01:16;25.10;84.10
22456;DHT22;11395;53.204;6.502;2023-07-29T07:03:43;25.20;84.10
22456;DHT22;11395;53.204;6.502;2023-07-29T07:06:09;25.10;84.50
22456;DHT22;11395;53.204;6.502;2023-07-29T07:08:35;25.10;84.70
22456;DHT22;11395;53.204;6.502;2023-07-29T07:11:01;25.20;84.50
22456;DHT22;11395;53.204;6.502;2023-07-29T07:13:27;25.20;84.10
22456;DHT22;11395;53.204;6.502;2023-07-29T07:15:55;25.30;83.90
22456;DHT22;11395;53.204;6.502;2023-07-29T07:18:21;25.20;84.90
22456;DHT22;11395;53.204;6.502;2023-07-29T07:20:49;25.20;84.70
22456;DHT22;11395;53.204;6.502;2023-07-29T07:23:16;25.20;84.90
22456;DHT22;11395;53.204;6.502;2023-07-29T07:25:42;25.10;85.10
22456;DHT22;11395;53.204;6.502;2023-07-29T07:28:09;25.20;84.60
22456;DHT22;11395;53.204;6.502;2023-07-29T07:30:39;25.20;84.80
22456;DHT22;11395;53.204;6.502;2023-07-29T07:33:07;25.20;85.80
22456;DHT22;11395;53.204;6.502;2023-07-29T07:35:33;25.20;84.70
22456;DHT22;11395;53.204;6.502;2023-07-29T07:37:59;25.10;84.20
22456;DHT22;11395;53.204;6.502;2023-07-29T07:40:28;25.10;84.40
22456;DHT22;11395;53.204;6.502;2023-07-29T07:42:54;25.10;84.50
22456;DHT22;11395;53.204;6.502;2023-07-29T07:45:20;25.20;84.50
22456;DHT22;11395;53.204;6.502;2023-07-29T07:47:46;25.20;84.80
22456;DHT22;11395;53.204;6.502;2023-07-29T07:50:12;25.30;84.70
22456;DHT22;11395;53.204;6.502;2023-07-29T07:52:40;25.30;84.80
22456;DHT22;11395;53.204;6.502;2023-07-29T07:55:06;25.30;84.60
22456;DHT22;11395;53.204;6.502;2023-07-29T07:57:32;25.40;84.40
22456;DHT22;11395;53.204;6.502;2023-07-29T07:59:58;25.70;83.40
22456;DHT22;11395;53.204;6.502;2023-07-29T08:02:25;25.90;82.80
22456;DHT22;11395;53.204;6.502;2023-07-29T08:04:51;25.90;82.70
22456;DHT22;11395;53.204;6.502;2023-07-29T08:07:17;25.90;82.40
22456;DHT22;11395;53.204;6.502;2023-07-29T08:09:44;26.00;82.20
22456;DHT22;11395;53.204;6.502;2023-07-29T08:12:10;25.90;83.50
22456;DHT22;11395;53.204;6.502;2023-07-29T08:14:36;25.90;83.30
22456;DHT22;11395;53.204;6.502;2023-07-29T08:17:02;25.90;82.90
22456;DHT22;11395;53.204;6.502;2023-07-29T08:19:29;26.10;82.00
22456;DHT22;11395;53.204;6.502;2023-07-29T08:21:55;26.40;81.80
22456;DHT22;11395;53.204;6.502;2023-07-29T08:24:21;26.80;80.40
22456;DHT22;11395;53.204;6.502;2023-07-29T08:26:47;26.90;79.90
22456;DHT22;11395;53.204;6.502;2023-07-29T08:29:13;26.80;80.30
22456;DHT22;11395;53.204;6.502;2023-07-29T08:31:39;26.70;80.50
22456;DHT22;11395;53.204;6.502;2023-07-29T08:34:06;26.50;80.80
22456;DHT22;11395;53.204;6.502;2023-07-29T08:36:32;26.30;80.90
22456;DHT22;11395;53.204;6.502;2023-07-29T08:38:59;26.20;81.40
22456;DHT22;11395;53.204;6.502;2023-07-29T08:41:27;26.10;81.30
22456;DHT22;11395;53.204;6.502;2023-07-29T08:44:06;26.40;82.70
22456;DHT22;11395;53.204;6.502;2023-07-29T08:46:35;26.00;84.00
22456;DHT22;11395;53.204;6.502;2023-07-29T08:49:02;25.90;82.70
22456;DHT22;11395;53.204;6.502;2023-07-29T08:51:29;25.90;83.00
22456;DHT22;11395;53.204;6.502;2023-07-29T08:53:58;26.10;83.00
22456;DHT22;11395;53.204;6.502;2023-07-29T08:56:25;26.50;82.60
22456;DHT22;11395;53.204;6.502;2023-07-29T08:58:52;27.30;80.80
22456;DHT22;11395;53.204;6.502;2023-07-29T09:01:19;27.70;80.00
22456;DHT22;11395;53.204;6.502;2023-07-29T09:03:45;28.30;78.20
22456;DHT22;11395;53.204;6.502;2023-07-29T09:06:12;28.20;76.80
22456;DHT22;11395;53.204;6.502;2023-07-29T09:08:39;27.80;77.40
22456;DHT22;11395;53.204;6.502;2023-07-29T09:11:06;27.50;77.70
22456;DHT22;11395;53.204;6.502;2023-07-29T09:13:32;26.80;78.20
22456;DHT22;11395;53.204;6.502;2023-07-29T09:15:59;27.00;79.20
22456;DHT22;11395;53.204;6.502;2023-07-29T09:18:26;26.90;78.90
22456;DHT22;11395;53.204;6.502;2023-07-29T09:20:53;26.90;79.40
22456;DHT22;11395;53.204;6.502;2023-07-29T09:23:19;27.10;80.10
22456;DHT22;11395;53.204;6.502;2023-07-29T09:25:46;27.40;79.50
22456;DHT22;11395;53.204;6.502;2023-07-29T09:28:15;27.50;79.00
22456;DHT22;11395;53.204;6.502;2023-07-29T09:30:44;27.60;79.00
22456;DHT22;11395;53.204;6.502;2023-07-29T09:33:11;27.40;78.70
22456;DHT22;11395;53.204;6.502;2023-07-29T09:35:38;27.20;78.00
22456;DHT22;11395;53.204;6.502;2023-07-29T09:38:05;27.00;78.70
22456;DHT22;11395;53.204;6.502;2023-07-29T09:40:36;26.90;79.00
22456;DHT22;11395;53.204;6.502;2023-07-29T09:43:03;26.90;80.90
22456;DHT22;11395;53.204;6.502;2023-07-29T09:45:31;26.80;79.50
22456;DHT22;11395;53.204;6.502;2023-07-29T09:47:58;26.90;79.70
22456;DHT22;11395;53.204;6.502;2023-07-29T09:50:25;26.90;79.70
22456;DHT22;11395;53.204;6.502;2023-07-29T09:52:53;26.90;79.40
22456;DHT22;11395;53.204;6.502;2023-07-29T09:55:23;26.80;79.70
22456;DHT22;11395;53.204;6.502;2023-07-29T09:57:57;26.70;81.00
22456;DHT22;11395;53.204;6.502;2023-07-29T10:00:27;26.60;81.50
22456;DHT22;11395;53.204;6.502;2023-07-29T10:02:54;26.50;80.50
22456;DHT22;11395;53.204;6.502;2023-07-29T10:05:20;26.50;81.00
22456;DHT22;11395;53.204;6.502;2023-07-29T10:07:48;26.40;80.50
22456;DHT22;11395;53.204;6.502;2023-07-29T10:10:15;26.40;81.40
22456;DHT22;11395;53.204;6.502;2023-07-29T10:12:43;26.30;81.00
22456;DHT22;11395;53.204;6.502;2023-07-29T10:15:09;26.30;81.40
22456;DHT22;11395;53.204;6.502;2023-07-29T10:17:37;26.30;81.20
22456;DHT22;11395;53.204;6.502;2023-07-29T10:20:05;26.30;81.60
22456;DHT22;11395;53.204;6.502;2023-07-29T10:22:40;26.30;81.30
22456;DHT22;11395;53.204;6.502;2023-07-29T10:25:17;26.40;80.90
22456;DHT22;11395;53.204;6.502;2023-07-29T10:27:55;26.30;81.20
22456;DHT22;11395;53.204;6.502;2023-07-29T10:30:24;26.30;79.90
22456;DHT22;11395;53.204;6.502;2023-07-29T10:32:52;26.40;82.20
22456;DHT22;11395;53.204;6.502;2023-07-29T10:35:19;26.30;81.90
22456;DHT22;11395;53.204;6.502;2023-07-29T10:37:46;26.30;81.40
22456;DHT22;11395;53.204;6.502;2023-07-29T10:40:12;26.50;82.10
22456;DHT22;11395;53.204;6.502;2023-07-29T10:42:39;26.40;81.30
22456;DHT22;11395;53.204;6.502;2023-07-29T10:45:25;26.40;81.60
22456;DHT22;11395;53.204;6.502;2023-07-29T10:47:51;26.30;81.30
22456;DHT22;11395;53.204;6.502;2023-07-29T10:50:19;26.40;81.30
22456;DHT22;11395;53.204;6.502;2023-07-29T10:52:49;26.30;81.70
22456;DHT22;11395;53.204;6.502;2023-07-29T10:58:12;26.20;82.90
22456;DHT22;11395;53.204;6.502;2023-07-29T11:00:42;26.20;83.20
22456;DHT22;11395;53.204;6.502;2023-07-29T11:03:09;26.10;82.70
22456;DHT22;11395;53.204;6.502;2023-07-29T11:06:05;26.10;82.00
22456;DHT22;11395;53.204;6.502;2023-07-29T11:08:31;26.10;83.50
22456;DHT22;11395;53.204;6.502;2023-07-29T11:11:03;26.00;81.80
22456;DHT22;11395;53.204;6.502;2023-07-29T11:13:32;26.00;83.60
22456;DHT22;11395;53.204;6.502;2023-07-29T11:15:59;26.00;83.00
22456;DHT22;11395;53.204;6.502;2023-07-29T11:18:35;25.90;82.90
22456;DHT22;11395;53.204;6.502;2023-07-29T11:21:03;25.90;84.30
22456;DHT22;11395;53.204;6.502;2023-07-29T11:23:35;25.90;83.20
22456;DHT22;11395;53.204;6.502;2023-07-29T11:26:02;26.00;83.50
22456;DHT22;11395;53.204;6.502;2023-07-29T11:28:28;26.10;82.60
22456;DHT22;11395;53.204;6.502;2023-07-29T11:30:55;26.10;82.50
22456;DHT22;11395;53.204;6.502;2023-07-29T11:33:24;26.10;82.70
22456;DHT22;11395;53.204;6.502;2023-07-29T11:35:51;26.10;83.20
22456;DHT22;11395;53.204;6.502;2023-07-29T11:38:18;26.10;82.60
22456;DHT22;11395;53.204;6.502;2023-07-29T11:41:01;26.10;82.90
22456;DHT22;11395;53.204;6.502;2023-07-29T11:43:35;26.20;84.10
22456;DHT22;11395;53.204;6.502;2023-07-29T11:46:02;26.20;83.50
22456;DHT22;11395;53.204;6.502;2023-07-29T11:48:31;26.10;82.10
22456;DHT22;11395;53.204;6.502;2023-07-29T11:51:02;26.10;83.40
22456;DHT22;11395;53.204;6.502;2023-07-29T11:53:29;26.00;83.80
22456;DHT22;11395;53.204;6.502;2023-07-29T11:55:58;26.10;82.50
22456;DHT22;11395;53.204;6.502;2023-07-29T11:58:25;26.10;82.70
22456;DHT22;11395;53.204;6.502;2023-07-29T12:00:52;26.00;83.50
22456;DHT22;11395;53.204;6.502;2023-07-29T12:03:18;26.00;82.60
22456;DHT22;11395;53.204;6.502;2023-07-29T12:05:45;26.10;83.50
22456;DHT22;11395;53.204;6.502;2023-07-29T12:08:11;26.10;83.50
22456;DHT22;11395;53.204;6.502;2023-07-29T12:10:37;26.20;82.50
22456;DHT22;11395;53.204;6.502;2023-07-29T12:13:04;26.20;82.10
22456;DHT22;11395;53.204;6.502;2023-07-29T12:15:30;26.20;82.10
22456;DHT22;11395;53.204;6.502;2023-07-29T12:17:58;26.20;82.30
22456;DHT22;11395;53.204;6.502;2023-07-29T12:20:26;26.30;82.80
22456;DHT22;11395;53.204;6.502;2023-07-29T12:22:54;26.20;82.70
22456;DHT22;11395;53.204;6.502;2023-07-29T12:25:20;26.20;82.50
22456;DHT22;11395;53.204;6.502;2023-07-29T12:27:47;26.30;82.60
22456;DHT22;11395;53.204;6.502;2023-07-29T12:30:13;26.30;82.40
22456;DHT22;11395;53.204;6.502;2023-07-29T12:32:46;26.30;82.10
22456;DHT22;11395;53.204;6.502;2023-07-29T12:35:12;26.20;83.50
22456;DHT22;11395;53.204;6.502;2023-07-29T12:37:39;26.20;82.10
22456;DHT22;11395;53.204;6.502;2023-07-29T12:42:49;26.20;84.00
22456;DHT22;11395;53.204;6.502;2023-07-29T12:45:16;26.10;82.80
22456;DHT22;11395;53.204;6.502;2023-07-29T12:47:44;26.20;83.00
22456;DHT22;11395;53.204;6.502;2023-07-29T12:50:10;26.20;82.30
22456;DHT22;11395;53.204;6.502;2023-07-29T12:52:37;26.20;82.30
22456;DHT22;11395;53.204;6.502;2023-07-29T12:55:03;26.20;82.10
22456;DHT22;11395;53.204;6.502;2023-07-29T12:57:29;26.20;82.00
22456;DHT22;11395;53.204;6.502;2023-07-29T12:59:55;26.20;81.80
22456;DHT22;11395;53.204;6.502;2023-07-29T13:02:22;26.30;81.80
22456;DHT22;11395;53.204;6.502;2023-07-29T13:04:48;26.20;81.70
22456;DHT22;11395;53.204;6.502;2023-07-29T13:07:14;26.20;81.80
22456;DHT22;11395;53.204;6.502;2023-07-29T13:09:40;26.30;81.70
22456;DHT22;11395;53.204;6.502;2023-07-29T13:12:06;26.30;82.50
22456;DHT22;11395;53.204;6.502;2023-07-29T13:14:33;26.70;83.20
22456;DHT22;11395;53.204;6.502;2023-07-29T13:16:59;26.30;81.80
22456;DHT22;11395;53.204;6.502;2023-07-29T13:19:34;26.30;82.10
22456;DHT22;11395;53.204;6.502;2023-07-29T13:22:00;26.30;85.00
22456;DHT22;11395;53.204;6.502;2023-07-29T13:24:28;26.60;84.90
22456;DHT22;11395;53.204;6.502;2023-07-29T13:26:54;26.60;83.80
22456;DHT22;11395;53.204;6.502;2023-07-29T13:29:20;26.40;83.00
22456;DHT22;11395;53.204;6.502;2023-07-29T13:31:47;26.40;81.80
22456;DHT22;11395;53.204;6.502;2023-07-29T13:34:13;26.60;85.50
22456;DHT22;11395;53.204;6.502;2023-07-29T13:36:40;26.70;82.90
22456;DHT22;11395;53.204;6.502;2023-07-29T13:39:09;26.60;81.50
22456;DHT22;11395;53.204;6.502;2023-07-29T13:41:35;26.70;80.20
22456;DHT22;11395;53.204;6.502;2023-07-29T13:44:07;26.60;82.30
22456;DHT22;11395;53.204;6.502;2023-07-29T13:46:38;26.60;83.40
22456;DHT22;11395;53.204;6.502;2023-07-29T13:49:05;26.80;82.00
22456;DHT22;11395;53.204;6.502;2023-07-29T13:51:31;26.50;81.60
22456;DHT22;11395;53.204;6.502;2023-07-29T13:53:57;26.50;81.20
22456;DHT22;11395;53.204;6.502;2023-07-29T13:56:23;26.50;81.20
22456;DHT22;11395;53.204;6.502;2023-07-29T13:58:49;26.50;81.00
22456;DHT22;11395;53.204;6.502;2023-07-29T14:01:16;26.50;81.00
22456;DHT22;11395;53.204;6.502;2023-07-29T14:03:42;26.50;81.10
22456;DHT22;11395;53.204;6.502;2023-07-29T14:06:08;26.80;82.50
22456;DHT22;11395;53.204;6.502;2023-07-29T14:08:34;26.80;81.80
22456;DHT22;11395;53.204;6.502;2023-07-29T14:11:01;26.60;81.10
22456;DHT22;11395;53.204;6.502;2023-07-29T14:13:27;26.60;81.40
22456;DHT22;11395;53.204;6.502;2023-07-29T14:15:53;26.60;81.40
22456;DHT22;11395;53.204;6.502;2023-07-29T14:18:19;26.60;81.10
22456;DHT22;11395;53.204;6.502;2023-07-29T14:20:46;26.60;80.90
22456;DHT22;11395;53.204;6.502;2023-07-29T14:23:12;26.60;80.60
22456;DHT22;11395;53.204;6.502;2023-07-29T14:25:38;26.70;81.00
22456;DHT22;11395;53.204;6.502;2023-07-29T14:28:04;26.70;80.60
22456;DHT22;11395;53.204;6.502;2023-07-29T14:30:30;26.70;81.00
22456;DHT22;11395;53.204;6.502;2023-07-29T14:32:57;26.70;81.00
22456;DHT22;11395;53.204;6.502;2023-07-29T14:35:23;26.80;81.20
22456;DHT22;11395;53.204;6.502;2023-07-29T14:37:49;26.70;81.00
22456;DHT22;11395;53.204;6.502;2023-07-29T14:40:16;26.70;80.90
22456;DHT22;11395;53.204;6.502;2023-07-29T14:42:42;27.00;83.00
22456;DHT22;11395;53.204;6.502;2023-07-29T14:45:08;26.70;81.20
22456;DHT22;11395;53.204;6.502;2023-07-29T14:47:34;26.60;81.10
22456;DHT22;11395;53.204;6.502;2023-07-29T14:50:01;26.60;80.90
22456;DHT22;11395;53.204;6.502;2023-07-29T14:52:27;26.70;80.90
22456;DHT22;11395;53.204;6.502;2023-07-29T14:54:53;26.70;81.60
22456;DHT22;11395;53.204;6.502;2023-07-29T14:57:19;26.70;80.60
22456;DHT22;11395;53.204;6.502;2023-07-29T14:59:45;26.70;81.00
22456;DHT22;11395;53.204;6.502;2023-07-29T15:02:12;26.70;80.80
22456;DHT22;11395;53.204;6.502;2023-07-29T15:04:38;26.70;80.60
22456;DHT22;11395;53.204;6.502;2023-07-29T15:07:04;26.70;80.70
22456;DHT22;11395;53.204;6.502;2023-07-29T15:09:30;26.70;80.90
22456;DHT22;11395;53.204;6.502;2023-07-29T15:11:56;26.80;80.70
22456;DHT22;11395;53.204;6.502;2023-07-29T15:14:46;26.80;81.00
22456;DHT22;11395;53.204;6.502;2023-07-29T15:17:16;26.20;80.30
22456;DHT22;11395;53.204;6.502;2023-07-29T15:19:42;26.80;81.70
22456;DHT22;11395;53.204;6.502;2023-07-29T15:22:08;26.70;81.50
22456;DHT22;11395;53.204;6.502;2023-07-29T15:24:34;27.00;82.20
22456;DHT22;11395;53.204;6.502;2023-07-29T15:27:00;27.00;81.50
22456;DHT22;11395;53.204;6.502;2023-07-29T15:29:27;26.70;80.70
22456;DHT22;11395;53.204;6.502;2023-07-29T15:31:53;26.70;80.80
22456;DHT22;11395;53.204;6.502;2023-07-29T15:34:19;26.70;80.30
22456;DHT22;11395;53.204;6.502;2023-07-29T15:36:45;26.70;80.70
22456;DHT22;11395;53.204;6.502;2023-07-29T15:39:11;26.70;80.70